Time;durP1;ratioP1;P1;durP2;ratioP2;P2;SDS_P1;SDS_P2;PMS_P1;PMS_P2;Temp;Humidity;BMP_temperature;BMP_pressure;BME280_temperature;BME280_humidity;BME280_pressure;Samples;Min_cycle;Max_cycle;Signal;HPM_P1;HPM_P2
2021/07/13 00:00:24;;;;;;;2.28;1.00;;;;;;;17.77;85.94;95780.47;5077327;28;20048;-73
2021/07/13 00:02:51;;;;;;;1.17;1.08;;;;;;;17.61;86.08;95791.19;5077319;28;20028;-74
2021/07/13 00:05:19;;;;;;;1.02;1.00;;;;;;;17.52;87.05;95814.06;5076953;28;20051;-73
2021/07/13 00:07:47;;;;;;;1.17;1.05;;;;;;;17.50;87.42;95841.94;5077228;28;20138;-74
2021/07/13 00:10:16;;;;;;;1.88;1.15;;;;;;;17.54;88.40;95835.78;5064412;28;20388;-72
2021/07/13 00:12:42;;;;;;;2.35;1.63;;;;;;;17.58;89.38;95822.78;5076901;28;20032;-72
2021/07/13 00:15:19;;;;;;;3.35;1.60;;;;;;;17.65;90.21;95780.81;5076424;28;20044;-72
2021/07/13 00:17:46;;;;;;;1.48;1.38;;;;;;;17.72;89.80;95765.38;5076818;28;20040;-73
2021/07/13 00:20:12;;;;;;;1.10;1.00;;;;;;;17.80;89.69;95782.53;5076044;28;20040;-73
2021/07/13 00:22:40;;;;;;;1.98;1.50;;;;;;;17.80;89.52;95775.38;5075833;28;20473;-73
2021/07/13 00:25:07;;;;;;;2.47;1.13;;;;;;;17.73;89.22;95790.81;5076624;28;20469;-73
2021/07/13 00:27:33;;;;;;;1.75;1.10;;;;;;;17.62;89.81;95786.69;5076227;28;20087;-73
2021/07/13 00:29:59;;;;;;;1.35;1.05;;;;;;;17.53;90.49;95780.41;5077068;28;20032;-73
2021/07/13 00:32:25;;;;;;;2.63;1.13;;;;;;;17.51;91.37;95766.63;5076067;28;20047;-73
2021/07/13 00:34:57;;;;;;;0.75;0.73;;;;;;;17.55;91.43;95767.66;5075100;28;20056;-73
2021/07/13 00:37:23;;;;;;;1.30;1.00;;;;;;;17.64;91.66;95766.00;5076522;28;20032;-73
2021/07/13 00:39:49;;;;;;;2.15;1.10;;;;;;;17.69;91.66;95760.63;5076648;28;20044;-73
2021/07/13 00:42:16;;;;;;;0.88;0.88;;;;;;;17.70;91.52;95748.97;5076288;28;20029;-74
2021/07/13 00:44:44;;;;;;;2.05;0.80;;;;;;;17.69;91.34;95733.34;5075692;28;20048;-74
2021/07/13 00:47:11;;;;;;;1.95;0.82;;;;;;;17.64;91.23;95742.91;5061122;28;20044;-75
2021/07/13 00:49:38;;;;;;;1.40;0.75;;;;;;;17.61;91.15;95748.75;5075151;28;20066;-74
2021/07/13 00:52:07;;;;;;;2.50;0.82;;;;;;;17.56;91.56;95754.13;5074915;28;20037;-74
2021/07/13 00:54:37;;;;;;;1.10;0.88;;;;;;;17.56;91.72;95761.28;5075480;28;20381;-74
2021/07/13 00:57:08;;;;;;;0.88;0.88;;;;;;;17.54;92.01;95750.97;5074862;28;20036;-74
2021/07/13 00:59:35;;;;;;;0.70;0.70;;;;;;;17.56;92.03;95745.38;5075288;28;20039;-75
2021/07/13 01:02:03;;;;;;;0.93;0.93;;;;;;;17.57;91.99;95745.09;5074044;28;20052;-74
2021/07/13 01:04:30;;;;;;;0.80;0.80;;;;;;;17.59;92.34;95745.59;5074757;28;20036;-74
2021/07/13 01:07:21;;;;;;;1.58;1.00;;;;;;;17.60;92.69;95741.13;5074501;28;20036;-75
2021/07/13 01:10:05;;;;;;;1.73;0.90;;;;;;;17.59;92.90;95739.50;5074724;28;20035;-75
2021/07/13 01:12:45;;;;;;;0.70;0.70;;;;;;;17.59;93.08;95761.50;5074639;28;20060;-75
2021/07/13 01:15:17;;;;;;;0.95;0.70;;;;;;;17.62;92.57;95774.22;5073858;28;20045;-74
2021/07/13 01:17:58;;;;;;;0.90;0.90;;;;;;;17.67;92.93;95780.56;5074724;28;20040;-74
2021/07/13 01:20:37;;;;;;;1.23;0.70;;;;;;;17.68;92.82;95782.94;5074057;28;20036;-73
2021/07/13 01:23:21;;;;;;;0.77;0.77;;;;;;;17.69;92.85;95781.84;5074229;28;20394;-73
2021/07/13 01:26:14;;;;;;;0.73;0.70;;;;;;;17.69;92.99;95789.03;5074606;28;20468;-73
2021/07/13 01:28:43;;;;;;;0.70;0.70;;;;;;;17.67;92.58;95791.94;5069113;28;20392;-73
2021/07/13 01:31:14;;;;;;;0.95;0.90;;;;;;;17.64;92.37;95800.47;5073089;28;20460;-73
2021/07/13 01:33:48;;;;;;;0.70;0.70;;;;;;;17.56;92.66;95814.31;5073694;28;20392;-73
2021/07/13 01:36:21;;;;;;;1.42;0.95;;;;;;;17.55;93.04;95823.31;5073372;28;20045;-73
2021/07/13 01:38:48;;;;;;;0.88;0.88;;;;;;;17.55;93.19;95837.38;5074267;28;20040;-73
2021/07/13 01:41:20;;;;;;;1.35;0.80;;;;;;;17.58;93.55;95836.81;5074691;28;20032;-73
2021/07/13 01:43:48;;;;;;;0.63;0.63;;;;;;;17.62;93.55;95832.56;5074321;28;20032;-73
2021/07/13 01:46:16;;;;;;;1.02;0.93;;;;;;;17.65;93.94;95826.69;5035092;28;1124695;-73
2021/07/13 01:48:45;;;;;;;0.93;0.93;;;;;;;17.65;93.60;95812.63;5074895;28;20039;-74
2021/07/13 01:51:12;;;;;;;1.80;0.88;;;;;;;17.60;93.57;95815.34;5074742;28;20469;-74
2021/07/13 01:53:39;;;;;;;2.05;0.75;;;;;;;17.52;93.55;95829.97;5074193;28;20051;-73
2021/07/13 01:56:07;;;;;;;0.80;0.80;;;;;;;17.45;94.13;95834.81;5074730;28;20036;-73
2021/07/13 01:58:37;;;;;;;1.05;0.95;;;;;;;17.38;94.94;95856.31;5074223;28;20048;-73
2021/07/13 02:01:12;;;;;;;1.48;0.80;;;;;;;17.38;95.30;95869.56;5074033;28;20048;-73
2021/07/13 02:03:40;;;;;;;1.25;1.00;;;;;;;17.43;95.57;95866.88;5073990;28;20516;-73
2021/07/13 02:06:07;;;;;;;1.10;0.80;;;;;;;17.50;95.72;95852.53;5074370;28;20040;-72
2021/07/13 02:08:38;;;;;;;2.05;1.40;;;;;;;17.53;96.34;95846.66;5073680;28;20481;-71
2021/07/13 02:11:08;;;;;;;1.15;0.90;;;;;;;17.56;96.35;95833.66;5074086;28;20055;-71
2021/07/13 02:13:35;;;;;;;1.23;0.95;;;;;;;17.57;95.72;95837.88;5074697;28;20457;-71
2021/07/13 02:16:02;;;;;;;1.50;1.40;;;;;;;17.50;95.84;95844.59;5073194;28;20033;-71
2021/07/13 02:18:28;;;;;;;1.40;1.30;;;;;;;17.36;96.47;95844.41;5073796;28;20063;-72
2021/07/13 02:20:54;;;;;;;1.75;1.00;;;;;;;17.27;96.63;95843.41;5074241;28;20043;-72
2021/07/13 02:23:20;;;;;;;1.58;0.82;;;;;;;17.23;97.26;95830.69;5074360;28;20472;-71
2021/07/13 02:25:49;;;;;;;2.15;1.08;;;;;;;17.29;97.63;95836.78;5074241;28;20460;-71
2021/07/13 02:28:29;;;;;;;0.90;0.90;;;;;;;17.37;98.05;95830.09;5073763;28;20032;-73
2021/07/13 02:31:02;;;;;;;1.20;0.98;;;;;;;17.42;98.08;95820.22;5073868;28;20048;-73
2021/07/13 02:33:34;;;;;;;0.95;0.95;;;;;;;17.48;97.94;95833.47;5074202;28;20397;-73
2021/07/13 02:36:07;;;;;;;1.35;0.80;;;;;;;17.44;97.59;95817.31;5074652;28;20354;-73
2021/07/13 02:38:33;;;;;;;2.20;1.00;;;;;;;17.45;97.67;95795.06;5073983;28;20350;-72
2021/07/13 02:41:01;;;;;;;0.75;0.75;;;;;;;17.48;97.72;95789.19;5074058;28;20033;-73
2021/07/13 02:43:29;;;;;;;1.95;0.80;;;;;;;17.52;97.89;95779.59;5074058;28;20047;-73
2021/07/13 02:45:56;;;;;;;0.73;0.73;;;;;;;17.55;97.70;95786.22;5073884;28;20384;-73
2021/07/13 02:48:22;;;;;;;0.90;0.80;;;;;;;17.56;97.27;95788.59;5073711;28;20045;-73
2021/07/13 02:50:53;;;;;;;0.65;0.65;;;;;;;17.53;97.31;95780.41;5073573;28;20056;-73
2021/07/13 02:53:20;;;;;;;0.40;0.40;;;;;;;17.52;97.32;95771.66;5073733;28;20032;-73
2021/07/13 02:55:47;;;;;;;0.35;0.35;;;;;;;17.54;97.47;95763.44;5073734;28;20044;-73
2021/07/13 02:58:15;;;;;;;0.65;0.60;;;;;;;17.54;97.48;95745.66;5072783;28;20040;-73
2021/07/13 03:00:42;;;;;;;1.25;0.52;;;;;;;17.56;97.23;95737.44;5073587;28;20377;-73
2021/07/13 03:03:09;;;;;;;0.70;0.60;;;;;;;17.51;96.93;95719.69;5072528;28;20476;-73
2021/07/13 03:05:37;;;;;;;1.35;0.65;;;;;;;17.47;97.01;95712.59;5073741;28;20041;-73
2021/07/13 03:08:04;;;;;;;0.77;0.60;;;;;;;17.44;97.32;95698.03;5073652;28;20033;-73
2021/07/13 03:10:31;;;;;;;0.50;0.50;;;;;;;17.42;97.50;95692.22;5073458;28;20032;-73
2021/07/13 03:12:58;;;;;;;0.60;0.60;;;;;;;17.40;97.42;95686.41;5073498;28;20028;-75
2021/07/13 03:15:27;;;;;;;0.93;0.68;;;;;;;17.38;97.37;95673.44;5073675;28;20037;-73
2021/07/13 03:17:53;;;;;;;0.60;0.60;;;;;;;17.37;97.72;95671.88;5073775;28;20039;-73
2021/07/13 03:20:24;;;;;;;0.60;0.60;;;;;;;17.36;97.73;95670.28;5073370;28;20032;-73
2021/07/13 03:22:51;;;;;;;0.65;0.65;;;;;;;17.35;97.66;95667.91;5073510;28;20465;-73
2021/07/13 03:25:24;;;;;;;1.08;0.55;;;;;;;17.33;97.84;95664.75;5072560;28;20060;-73
2021/07/13 03:27:52;;;;;;;1.35;0.68;;;;;;;17.31;97.93;95658.94;5073469;28;20032;-73
2021/07/13 03:30:18;;;;;;;0.57;0.57;;;;;;;17.29;98.10;95655.78;5073334;28;20032;-74
2021/07/13 03:32:47;;;;;;;0.93;0.75;;;;;;;17.28;97.92;95654.97;5073497;28;20032;-73
2021/07/13 03:35:16;;;;;;;0.88;0.85;;;;;;;17.25;98.18;95647.59;5072726;28;20041;-73
2021/07/13 03:37:42;;;;;;;0.45;0.45;;;;;;;17.20;98.11;95651.09;5071554;28;20055;-73
2021/07/13 03:40:09;;;;;;;0.82;0.65;;;;;;;17.21;98.54;95650.00;5073123;28;20037;-73
2021/07/13 03:42:35;;;;;;;0.77;0.65;;;;;;;17.25;98.83;95652.91;5072893;28;20024;-73
2021/07/13 03:45:03;;;;;;;0.85;0.80;;;;;;;17.27;98.80;95649.97;5072355;28;20457;-73
2021/07/13 03:47:30;;;;;;;1.15;0.50;;;;;;;17.31;98.59;95658.94;5073924;28;20056;-73
2021/07/13 03:49:56;;;;;;;0.80;0.80;;;;;;;17.30;98.32;95652.06;5072853;28;20057;-74
2021/07/13 03:52:23;;;;;;;1.77;0.60;;;;;;;17.32;98.44;95647.25;5073088;28;20044;-73
2021/07/13 03:54:49;;;;;;;0.70;0.70;;;;;;;17.31;98.01;95640.41;5073115;28;20044;-73
2021/07/13 03:57:15;;;;;;;0.52;0.52;;;;;;;17.32;98.13;95640.09;5072993;28;20039;-74
2021/07/13 03:59:42;;;;;;;0.80;0.60;;;;;;;17.35;98.18;95642.19;5072391;28;20067;-73
2021/07/13 04:02:08;;;;;;;0.77;0.60;;;;;;;17.37;98.06;95633.97;5072209;28;20040;-73
2021/07/13 04:04:34;;;;;;;0.70;0.70;;;;;;;17.36;97.84;95638.47;5072168;28;20044;-74
2021/07/13 04:07:00;;;;;;;0.65;0.65;;;;;;;17.35;97.49;95652.81;5073454;28;20051;-73
2021/07/13 04:09:26;;;;;;;0.80;0.50;;;;;;;17.35;97.29;95657.31;5072914;28;20043;-73
2021/07/13 04:11:52;;;;;;;0.60;0.50;;;;;;;17.35;97.40;95658.09;5072741;28;20040;-74
2021/07/13 04:14:19;;;;;;;0.40;0.40;;;;;;;17.35;97.23;95655.44;5072326;28;20048;-73
2021/07/13 04:16:45;;;;;;;0.73;0.73;;;;;;;17.37;97.37;95647.22;5073036;28;20059;-73
2021/07/13 04:19:11;;;;;;;1.35;0.60;;;;;;;17.40;97.07;95646.66;5072684;28;20040;-74
2021/07/13 04:21:37;;;;;;;0.52;0.52;;;;;;;17.41;96.82;95649.03;5073302;28;20044;-73
2021/07/13 04:24:03;;;;;;;1.10;0.80;;;;;;;17.42;96.49;95657.78;5071843;28;20041;-74
2021/07/13 04:26:29;;;;;;;0.50;0.50;;;;;;;17.44;96.29;95663.56;5072866;28;20035;-75
2021/07/13 04:28:55;;;;;;;0.52;0.52;;;;;;;17.45;96.14;95678.44;5071884;28;20033;-74
2021/07/13 04:31:21;;;;;;;0.60;0.50;;;;;;;17.47;96.00;95689.53;5072382;28;20028;-74
2021/07/13 04:33:48;;;;;;;1.10;0.60;;;;;;;17.48;96.03;95679.72;5072575;28;20033;-74
2021/07/13 04:36:14;;;;;;;0.70;0.70;;;;;;;17.49;95.77;95682.09;5071693;28;20040;-73
2021/07/13 04:38:41;;;;;;;0.95;0.50;;;;;;;17.49;95.76;95682.09;5072859;28;20385;-74
2021/07/13 04:41:07;;;;;;;0.50;0.50;;;;;;;17.51;95.39;95690.53;5076763;28;20404;-73
2021/07/13 04:43:33;;;;;;;0.50;0.50;;;;;;;17.51;95.17;95687.09;5075265;28;20049;-74
2021/07/13 04:46:00;;;;;;;0.50;0.50;;;;;;;17.52;95.15;95684.19;5076220;28;20037;-75
2021/07/13 04:48:26;;;;;;;0.45;0.45;;;;;;;17.53;94.99;95688.41;5075949;28;20385;-75
2021/07/13 04:50:52;;;;;;;0.50;0.50;;;;;;;17.55;94.76;95688.13;5076564;28;20036;-76
2021/07/13 04:53:18;;;;;;;0.55;0.55;;;;;;;17.58;95.05;95682.28;5075984;28;20044;-75
2021/07/13 04:55:44;;;;;;;0.88;0.73;;;;;;;17.58;94.89;95680.41;5075853;28;20123;-75
2021/07/13 04:58:10;;;;;;;0.57;0.50;;;;;;;17.61;94.86;95676.41;5076026;28;20396;-75
2021/07/13 05:00:36;;;;;;;0.88;0.60;;;;;;;17.63;94.55;95683.00;5075806;28;20033;-73
2021/07/13 05:03:02;;;;;;;0.77;0.47;;;;;;;17.65;94.58;95688.03;5075938;28;20425;-74
2021/07/13 05:05:28;;;;;;;0.50;0.50;;;;;;;17.65;94.26;95688.03;5074999;28;20045;-74
2021/07/13 05:07:54;;;;;;;0.45;0.45;;;;;;;17.65;94.10;95678.19;5075982;28;20389;-74
2021/07/13 05:10:21;;;;;;;1.05;0.73;;;;;;;17.65;93.97;95688.81;5075768;28;20044;-73
2021/07/13 05:12:47;;;;;;;0.77;0.50;;;;;;;17.65;94.07;95682.72;5075814;28;20132;-73
2021/07/13 05:15:15;;;;;;;0.60;0.60;;;;;;;17.67;93.89;95687.75;5074722;28;20067;-73
2021/07/13 05:17:41;;;;;;;0.68;0.68;;;;;;;17.66;93.97;95681.66;5075886;28;20036;-74
2021/07/13 05:20:12;;;;;;;0.43;0.40;;;;;;;17.68;94.19;95676.88;5075461;28;20043;-73
2021/07/13 05:22:39;;;;;;;0.73;0.60;;;;;;;17.70;94.06;95660.66;5075474;28;20037;-73
2021/07/13 05:25:07;;;;;;;0.40;0.40;;;;;;;17.72;93.93;95654.00;5076000;28;20036;-74
2021/07/13 05:27:38;;;;;;;0.77;0.50;;;;;;;17.73;94.12;95652.94;5075395;28;20389;-74
2021/07/13 05:30:05;;;;;;;0.77;0.70;;;;;;;17.74;93.98;95661.66;5075408;28;20037;-73
2021/07/13 05:32:32;;;;;;;0.50;0.50;;;;;;;17.75;93.69;95668.56;5075110;28;20056;-74
2021/07/13 05:34:58;;;;;;;0.60;0.60;;;;;;;17.73;93.54;95668.06;5075346;28;20044;-74
2021/07/13 05:37:24;;;;;;;0.45;0.40;;;;;;;17.74;93.53;95680.22;5073736;28;20036;-74
2021/07/13 05:39:50;;;;;;;1.30;0.50;;;;;;;17.72;93.58;95679.72;5075281;28;20037;-74
2021/07/13 05:42:16;;;;;;;0.57;0.50;;;;;;;17.71;93.52;95684.25;5073936;28;20385;-73
2021/07/13 05:44:42;;;;;;;0.60;0.60;;;;;;;17.71;93.56;95686.91;5073532;28;20036;-73
2021/07/13 05:47:09;;;;;;;0.60;0.60;;;;;;;17.69;93.56;95688.25;5072941;28;20053;-73
2021/07/13 05:49:35;;;;;;;1.58;0.40;;;;;;;17.67;93.43;95693.84;5074897;28;20098;-73
2021/07/13 05:52:01;;;;;;;1.02;0.85;;;;;;;17.64;93.80;95695.19;5074053;28;20045;-73
2021/07/13 05:54:27;;;;;;;0.90;0.70;;;;;;;17.59;93.83;95695.22;5075058;28;20142;-73
2021/07/13 05:56:54;;;;;;;1.17;0.88;;;;;;;17.54;93.88;95700.59;5075423;28;20040;-73
2021/07/13 05:59:20;;;;;;;1.63;0.88;;;;;;;17.48;94.35;95698.28;5073640;28;20048;-73
2021/07/13 06:01:46;;;;;;;1.00;0.90;;;;;;;17.44;94.59;95700.69;5074830;28;20036;-73
2021/07/13 06:04:12;;;;;;;0.85;0.80;;;;;;;17.45;95.16;95697.75;5075360;28;20483;-73
2021/07/13 06:06:38;;;;;;;1.02;0.85;;;;;;;17.49;95.55;95698.00;5073998;28;20040;-73
2021/07/13 06:09:04;;;;;;;1.23;0.80;;;;;;;17.51;95.86;95695.84;5073880;28;20045;-73
2021/07/13 06:11:31;;;;;;;1.73;1.40;;;;;;;17.49;95.86;95692.69;5073950;28;20049;-73
2021/07/13 06:13:57;;;;;;;1.60;1.05;;;;;;;17.45;96.01;95695.13;5074642;28;20039;-73
2021/07/13 06:16:23;;;;;;;2.05;1.20;;;;;;;17.46;96.40;95695.91;5074741;28;20036;-73
2021/07/13 06:18:49;;;;;;;1.80;1.02;;;;;;;17.48;96.92;95695.63;5073312;28;20056;-73
2021/07/13 06:21:15;;;;;;;2.28;1.35;;;;;;;17.50;97.48;95698.78;5073225;28;20487;-73
2021/07/13 06:23:41;;;;;;;1.60;1.50;;;;;;;17.45;97.54;95691.69;5074674;28;20039;-73
2021/07/13 06:26:07;;;;;;;1.40;1.30;;;;;;;17.40;97.43;95684.53;5074390;28;20044;-73
2021/07/13 06:28:33;;;;;;;2.33;1.40;;;;;;;17.34;97.98;95693.63;5074355;28;20062;-73
2021/07/13 06:30:59;;;;;;;1.35;1.20;;;;;;;17.32;98.60;95698.41;5074298;28;20033;-73
2021/07/13 06:33:25;;;;;;;1.30;1.30;;;;;;;17.33;99.35;95704.50;5074491;28;20400;-72
2021/07/13 06:35:51;;;;;;;2.60;1.10;;;;;;;17.36;99.39;95715.31;5074311;28;20047;-73
2021/07/13 06:38:18;;;;;;;0.90;0.90;;;;;;;17.41;99.63;95712.66;5074128;28;20036;-72
2021/07/13 06:40:44;;;;;;;0.80;0.80;;;;;;;17.48;99.45;95701.72;5073959;28;20044;-73
2021/07/13 06:43:10;;;;;;;1.10;1.10;;;;;;;17.52;99.42;95707.25;5074490;28;20029;-73
2021/07/13 06:45:36;;;;;;;1.40;1.00;;;;;;;17.52;99.36;95716.00;5073522;28;20048;-73
2021/07/13 06:48:03;;;;;;;0.95;0.95;;;;;;;17.54;99.37;95713.84;5074026;28;20036;-73
2021/07/13 06:50:29;;;;;;;1.35;1.25;;;;;;;17.52;99.70;95718.63;5074043;28;20495;-73
2021/07/13 06:52:55;;;;;;;1.17;1.10;;;;;;;17.52;99.67;95713.34;5073813;28;20036;-73
2021/07/13 06:55:21;;;;;;;1.20;1.10;;;;;;;17.52;99.88;95697.44;5073802;28;20057;-73
2021/07/13 06:57:48;;;;;;;0.80;0.80;;;;;;;17.55;99.85;95710.13;5073137;28;20384;-72
2021/07/13 07:00:15;;;;;;;1.13;0.88;;;;;;;17.57;99.64;95720.44;5073603;28;20051;-73
2021/07/13 07:02:41;;;;;;;4.90;1.20;;;;;;;17.58;99.79;95727.34;5072742;28;20059;-73
2021/07/13 07:05:08;;;;;;;1.00;1.00;;;;;;;17.58;99.83;95724.69;5073916;28;20044;-74
2021/07/13 07:07:34;;;;;;;1.08;1.08;;;;;;;17.56;99.68;95721.53;5072869;28;20032;-73
2021/07/13 07:10:00;;;;;;;1.40;1.30;;;;;;;17.54;99.95;95726.31;5072802;28;20055;-73
2021/07/13 07:12:26;;;;;;;2.13;1.50;;;;;;;17.52;100.00;95725.81;5073451;28;20032;-72
2021/07/13 07:14:52;;;;;;;1.30;1.20;;;;;;;17.47;100.00;95718.69;5073767;28;20040;-73
2021/07/13 07:17:18;;;;;;;1.05;1.02;;;;;;;17.47;100.00;95718.69;5073131;28;20044;-73
2021/07/13 07:19:44;;;;;;;1.00;1.00;;;;;;;17.49;100.00;95723.69;5073932;28;20047;-73
2021/07/13 07:22:11;;;;;;;0.75;0.70;;;;;;;17.51;100.00;95708.31;5071796;28;20045;-74
2021/07/13 07:24:37;;;;;;;0.60;0.60;;;;;;;17.50;100.00;95699.56;5073480;28;20032;-73
2021/07/13 07:27:03;;;;;;;0.47;0.47;;;;;;;17.49;100.00;95703.31;5073557;28;20376;-73
2021/07/13 07:29:29;;;;;;;0.90;0.60;;;;;;;17.47;99.78;95700.16;5073053;28;20044;-73
2021/07/13 07:31:55;;;;;;;0.43;0.43;;;;;;;17.43;99.93;95707.06;5073346;28;20025;-73
2021/07/13 07:34:21;;;;;;;0.65;0.40;;;;;;;17.34;99.20;95712.16;5073734;28;20036;-73
2021/07/13 07:36:48;;;;;;;0.52;0.52;;;;;;;17.27;99.26;95718.88;5073302;28;20362;-73
2021/07/13 07:39:14;;;;;;;0.50;0.50;;;;;;;17.20;99.54;95717.31;5073745;28;20052;-73
2021/07/13 07:41:40;;;;;;;0.47;0.47;;;;;;;17.19;99.95;95718.38;5073265;28;20144;-74
2021/07/13 07:44:06;;;;;;;0.40;0.38;;;;;;;17.20;100.00;95730.56;5073240;28;20037;-73
2021/07/13 07:46:32;;;;;;;0.60;0.50;;;;;;;17.17;100.00;95725.03;5073175;28;20483;-74
2021/07/13 07:48:59;;;;;;;0.40;0.40;;;;;;;17.21;99.92;95742.75;5073072;28;20373;-73
2021/07/13 07:51:25;;;;;;;0.82;0.40;;;;;;;17.23;100.00;95743.25;5073351;28;20063;-73
2021/07/13 07:53:51;;;;;;;0.50;0.45;;;;;;;17.25;99.84;95735.81;5073267;28;20032;-74
2021/07/13 07:56:17;;;;;;;1.88;0.45;;;;;;;17.29;100.00;95736.06;5072251;28;20064;-74
2021/07/13 07:58:43;;;;;;;2.20;0.80;;;;;;;17.35;99.90;95739.47;5072923;28;20036;-75
2021/07/13 08:01:10;;;;;;;0.38;0.38;;;;;;;17.35;99.43;95742.91;5073213;28;20381;-73
2021/07/13 08:03:36;;;;;;;1.17;0.30;;;;;;;17.39;99.73;95740.50;5072655;28;20056;-73
2021/07/13 08:06:02;;;;;;;0.50;0.43;;;;;;;17.43;99.69;95734.38;5073054;28;20033;-73
2021/07/13 08:08:28;;;;;;;0.20;0.20;;;;;;;17.46;99.66;95722.41;5072245;28;20040;-73
2021/07/13 08:10:55;;;;;;;0.40;0.40;;;;;;;17.47;99.11;95716.03;5072554;28;20047;-73
2021/07/13 08:13:21;;;;;;;0.80;0.30;;;;;;;17.50;98.75;95709.38;5072889;28;20029;-73
2021/07/13 08:15:47;;;;;;;0.93;0.40;;;;;;;17.54;98.44;95699.81;5076679;28;20032;-73
2021/07/13 08:18:13;;;;;;;0.75;0.20;;;;;;;17.54;97.74;95711.19;5076833;28;20056;-72
2021/07/13 08:20:40;;;;;;;0.38;0.25;;;;;;;17.53;97.23;95708.81;5076861;28;20032;-72
2021/07/13 08:23:06;;;;;;;0.20;0.20;;;;;;;17.47;96.79;95708.09;5076404;28;20048;-73
2021/07/13 08:25:32;;;;;;;0.28;0.28;;;;;;;17.43;97.00;95726.41;5075199;28;20052;-74
2021/07/13 08:27:59;;;;;;;0.45;0.30;;;;;;;17.41;97.30;95717.16;5077189;28;20033;-73
2021/07/13 08:30:27;;;;;;;0.40;0.20;;;;;;;17.40;97.59;95723.53;5075150;28;20056;-73
2021/07/13 08:32:55;;;;;;;0.30;0.25;;;;;;;17.36;97.42;95736.53;5076063;28;20044;-73
2021/07/13 08:35:21;;;;;;;0.20;0.20;;;;;;;17.35;97.69;95734.19;5076436;28;20040;-74
2021/07/13 08:37:48;;;;;;;0.57;0.20;;;;;;;17.36;97.58;95733.09;5075844;28;20053;-73
2021/07/13 08:40:15;;;;;;;0.10;0.10;;;;;;;17.34;97.49;95738.66;5076797;28;20044;-73
2021/07/13 08:42:45;;;;;;;0.05;0.05;;;;;;;17.31;97.43;95744.53;5075209;28;20028;-73
2021/07/13 08:45:18;;;;;;;0.70;0.10;;;;;;;17.29;96.89;95746.66;5075948;28;20369;-73
2021/07/13 08:47:46;;;;;;;0.30;0.20;;;;;;;17.23;96.74;95758.38;5076585;28;20048;-73
2021/07/13 08:50:14;;;;;;;0.10;0.10;;;;;;;17.14;96.18;95773.28;5076241;28;20032;-73
2021/07/13 08:52:40;;;;;;;0.10;0.00;;;;;;;17.07;96.44;95783.38;5076640;28;20044;-73
2021/07/13 08:55:08;;;;;;;0.10;0.10;;;;;;;17.01;96.62;95793.25;5076124;28;20025;-73
2021/07/13 08:57:37;;;;;;;0.00;0.00;;;;;;;16.93;96.23;95813.16;5075977;28;20362;-73
2021/07/13 09:00:07;;;;;;;0.05;0.03;;;;;;;16.86;96.09;95817.94;5076441;28;20059;-73
2021/07/13 09:02:33;;;;;;;0.10;0.10;;;;;;;16.80;96.48;95829.63;5076002;28;20025;-73
2021/07/13 09:04:59;;;;;;;0.43;0.10;;;;;;;16.75;96.37;95826.97;5075299;28;20032;-72
2021/07/13 09:07:29;;;;;;;0.45;0.20;;;;;;;16.72;96.60;95824.88;5074916;28;20033;-72
2021/07/13 09:10:03;;;;;;;1.45;0.13;;;;;;;16.72;96.57;95816.94;5075794;28;20059;-73
2021/07/13 09:12:30;;;;;;;0.17;0.17;;;;;;;16.73;96.70;95829.09;5076357;28;20408;-72
2021/07/13 09:15:00;;;;;;;0.13;0.13;;;;;;;16.72;96.24;95844.19;5075244;28;20036;-73
2021/07/13 09:17:39;;;;;;;0.30;0.20;;;;;;;16.70;94.90;95859.56;5076034;28;20028;-72
2021/07/13 09:20:08;;;;;;;0.55;0.30;;;;;;;16.60;94.83;95875.47;5075964;28;20028;-72
2021/07/13 09:22:35;;;;;;;0.10;0.10;;;;;;;16.49;95.19;95884.53;5074450;28;20028;-72
2021/07/13 09:25:23;;;;;;;0.28;0.20;;;;;;;16.32;93.11;95887.47;5075602;28;20045;-72
2021/07/13 09:28:20;;;;;;;0.13;0.13;;;;;;;16.19;93.32;95875.56;5058857;28;20045;-73
2021/07/13 09:30:55;;;;;;;0.00;0.00;;;;;;;16.07;92.43;95872.44;5075282;28;20049;-72
2021/07/13 09:33:34;;;;;;;0.20;0.20;;;;;;;15.96;92.59;95875.09;5075739;28;20472;-73
2021/07/13 09:36:03;;;;;;;0.80;0.15;;;;;;;15.91;93.94;95893.59;5075378;28;20033;-73
2021/07/13 09:38:36;;;;;;;0.45;0.10;;;;;;;15.91;93.02;95896.22;5075231;28;20048;-73
2021/07/13 09:41:04;;;;;;;0.55;0.30;;;;;;;15.88;93.79;95901.28;5074522;28;20048;-74
2021/07/13 09:44:10;;;;;;;0.00;0.00;;;;;;;15.89;93.23;95900.19;5075464;28;20033;-73
2021/07/13 09:46:44;;;;;;;0.50;0.17;;;;;;;15.89;94.40;95887.78;5020575;28;20049;-74
2021/07/13 09:49:15;;;;;;;;;;;;;;;15.89;93.67;95877.19;5069801;28;20057;-74
2021/07/13 09:51:47;;;;;;;0.20;0.20;;;;;;;15.89;93.79;95850.75;5074851;28;19913;-74
2021/07/13 09:54:32;;;;;;;0.45;0.17;;;;;;;15.93;93.29;95843.88;5074908;28;20028;-73
2021/07/13 09:56:59;;;;;;;;;;;;;;;15.96;91.83;95835.41;5075322;28;20145;-74
2021/07/13 09:59:26;;;;;;;0.40;0.17;;;;;;;15.96;92.59;95824.06;5074546;28;19924;-74
2021/07/13 10:01:52;;;;;;;0.10;0.10;;;;;;;15.96;92.62;95805.56;5075011;28;20033;-74
2021/07/13 10:04:19;;;;;;;0.10;0.10;;;;;;;15.90;91.78;95802.13;5075501;28;20045;-74
2021/07/13 10:06:46;;;;;;;0.20;0.00;;;;;;;15.77;90.34;95789.41;5074850;28;20045;-73
2021/07/13 10:09:13;;;;;;;0.22;0.22;;;;;;;15.68;90.55;95802.34;5074895;28;20032;-74
2021/07/13 10:11:40;;;;;;;0.15;0.10;;;;;;;15.65;90.51;95825.91;5074549;28;20028;-74
2021/07/13 10:14:08;;;;;;;0.20;0.20;;;;;;;15.67;91.35;95863.44;5074255;28;20044;-74
2021/07/13 10:16:34;;;;;;;0.00;0.00;;;;;;;15.69;91.13;95883.25;5074738;28;20373;-74
2021/07/13 10:19:03;;;;;;;0.10;0.10;;;;;;;15.66;90.51;95904.13;5074161;28;20056;-74
2021/07/13 10:21:30;;;;;;;0.20;0.20;;;;;;;15.57;90.31;95920.50;5074329;28;20404;-74
2021/07/13 10:23:57;;;;;;;0.00;0.00;;;;;;;15.51;90.00;95916.25;5074422;28;20029;-74
2021/07/13 10:26:59;;;;;;;0.10;0.10;;;;;;;15.42;91.13;95920.47;5074249;28;20041;-74
2021/07/13 10:29:31;;;;;;;0.20;0.10;;;;;;;15.44;90.96;95918.38;5032162;28;20509;-74
2021/07/13 10:32:01;;;;;;;0.17;0.10;;;;;;;15.54;91.36;95905.19;5056199;28;20044;-73
2021/07/13 10:34:56;;;;;;;0.75;0.20;;;;;;;15.75;91.92;95892.81;5073537;28;20052;-74
2021/07/13 10:37:29;;;;;;;0.32;0.13;;;;;;;15.98;91.69;95901.25;5073557;28;20051;-74
2021/07/13 10:39:59;;;;;;;0.43;0.10;;;;;;;16.14;90.13;95896.75;5074256;28;20099;-74
2021/07/13 10:42:40;;;;;;;0.10;0.10;;;;;;;16.16;89.06;95913.94;5074490;28;20028;-74
2021/07/13 10:45:27;;;;;;;0.22;0.20;;;;;;;16.19;90.03;95921.34;5072348;28;20047;-74
2021/07/13 10:47:58;;;;;;;0.10;0.10;;;;;;;16.18;88.94;95929.56;5074412;28;20040;-74
2021/07/13 10:50:27;;;;;;;1.75;0.20;;;;;;;16.14;88.56;95936.44;5074407;28;20036;-74
2021/07/13 10:53:02;;;;;;;0.17;0.10;;;;;;;16.04;88.38;95934.56;5073922;28;20032;-74
2021/07/13 10:55:34;;;;;;;0.10;0.10;;;;;;;15.97;88.72;95924.25;5073132;28;20033;-75
2021/07/13 10:58:10;;;;;;;0.10;0.10;;;;;;;15.95;88.10;95902.56;5059551;28;20029;-74
2021/07/13 11:00:54;;;;;;;0.60;0.60;;;;;;;16.03;89.46;95906.56;5073316;28;20036;-74
2021/07/13 11:03:29;;;;;;;0.43;0.40;;;;;;;16.16;89.64;95905.22;5072042;28;20036;-74
2021/07/13 11:06:03;;;;;;;0.20;0.20;;;;;;;16.17;87.78;95904.97;5072880;28;20507;-74
2021/07/13 11:08:44;;;;;;;0.20;0.20;;;;;;;16.19;88.60;95907.31;5072724;28;20028;-74
2021/07/13 11:11:22;;;;;;;1.38;0.13;;;;;;;16.24;88.75;95917.91;5073754;28;20032;-74
2021/07/13 11:13:52;;;;;;;0.10;0.10;;;;;;;16.28;88.58;95918.19;5074083;28;20028;-74
2021/07/13 11:16:30;;;;;;;0.55;0.20;;;;;;;16.27;87.83;95909.41;5073955;28;20048;-75
2021/07/13 11:18:58;;;;;;;2.58;0.17;;;;;;;16.34;88.44;95891.44;5074154;28;20048;-74
2021/07/13 11:21:31;;;;;;;0.00;0.00;;;;;;;16.43;87.92;95900.41;5073505;28;20029;-74
2021/07/13 11:24:07;;;;;;;0.10;0.10;;;;;;;16.51;87.62;95916.81;5073581;28;20036;-74
2021/07/13 11:26:37;;;;;;;0.10;0.10;;;;;;;16.52;87.56;95921.03;5073488;28;20448;-74
2021/07/13 11:29:05;;;;;;;0.00;0.00;;;;;;;16.49;87.20;95926.88;5072655;28;20408;-74
2021/07/13 11:31:33;;;;;;;0.00;0.00;;;;;;;16.48;86.77;95939.28;5073521;28;20024;-74
2021/07/13 11:34:14;;;;;;;0.38;0.00;;;;;;;16.47;87.12;95937.72;5073380;28;20033;-74
2021/07/13 11:36:42;;;;;;;0.03;0.00;;;;;;;16.47;87.22;95942.22;5073495;28;20028;-75
2021/07/13 11:39:11;;;;;;;0.00;0.00;;;;;;;16.43;86.64;95940.09;5073315;28;20039;-75
2021/07/13 11:41:38;;;;;;;0.10;0.10;;;;;;;16.41;86.79;95933.50;5073612;28;20024;-74